^^
Station Historical Data
Daily Summary for October 11, 2017 Units:  Both    English   Metric
« Previous Day
Next Day »
Daily Weekly Monthly Yearly Custom
  High: Low: Average:
Temperature: TemperatureF °F /  -17.8 °C 50.7 °F /  10.4 °C 68 °F /  20 °C
Dew Point: DewpointF °F /  -17.8 °C -0.2 °F /  -17.9 °C 15.8 °F /  -9 °C
Humidity: Humidity% 4% 16%
Wind Speed: WindSpeedMPHmph /  0km/h - 1.5mph /  2.4km/h
Wind Gust: WindSpeedGustMPHmph /  0km/h - -
Wind- - SW
Pressure: PressureIn in /  0 hPa 29.72 in /  1006.3 hPa -
Precipitation: 0.00 in /  0 mm    
Historical Graphs
 
 
Tabular Data for October 11, 2017
Time Temperature Dew Point Pressure Wind Wind Speed Wind Gust Humidity Rainfall Rate (Hourly) solar Conditions
TemperatureF °F /  -17.8 °C DewpointF °F /  -17.8 °C PressureInin /  0hPa Calm     Humidity% HourlyPrecipInin /  0mm SolarRadiationWatts/m^2 W/m2 Conditions
00:03 57.7 °F /  14.3 °C 13.3 °F /  -10.4 °C 29.84in /  1010.4hPa Calm     17% 0.00in /  0mm 0.0 W/m2
00:08 57.6 °F /  14.2 °C 14.4 °F /  -9.8 °C 29.84in /  1010.4hPa Calm     18% 0.00in /  0mm 0.0 W/m2
00:13 57.2 °F /  14 °C 14.0 °F /  -10 °C 29.84in /  1010.4hPa Calm     18% 0.00in /  0mm 0.0 W/m2
00:18 56.8 °F /  13.8 °C 13.8 °F /  -10.1 °C 29.84in /  1010.4hPa Calm   1.0mph /  1.6km/h 18% 0.00in /  0mm 0.0 W/m2
00:28 56.7 °F /  13.7 °C 13.6 °F /  -10.2 °C 29.83in /  1010hPa Calm   1.0mph /  1.6km/h 18% 0.00in /  0mm 0.0 W/m2
00:33 56.7 °F /  13.7 °C 13.6 °F /  -10.2 °C 29.83in /  1010hPa Calm     18% 0.00in /  0mm 0.0 W/m2
00:44 56.3 °F /  13.5 °C 14.5 °F /  -9.7 °C 29.83in /  1010hPa Calm     19% 0.00in /  0mm 0.0 W/m2
00:49 56.1 °F /  13.4 °C 14.4 °F /  -9.8 °C 29.84in /  1010.4hPa Calm     19% 0.00in /  0mm 0.0 W/m2
00:54 55.9 °F /  13.3 °C 15.4 °F /  -9.2 °C 29.84in /  1010.4hPa Calm     20% 0.00in /  0mm 0.0 W/m2
01:00 55.8 °F /  13.2 °C 15.3 °F /  -9.3 °C 29.83in /  1010hPa Calm     20% 0.00in /  0mm 0.0 W/m2
01:05 55.6 °F /  13.1 °C 15.1 °F /  -9.4 °C 29.83in /  1010hPa Calm     20% 0.00in /  0mm 0.0 W/m2
01:10 55.2 °F /  12.9 °C 16.0 °F /  -8.9 °C 29.83in /  1010hPa Calm     21% 0.00in /  0mm 0.0 W/m2
01:15 55.0 °F /  12.8 °C 15.8 °F /  -9 °C 29.83in /  1010hPa Calm     21% 0.00in /  0mm 0.0 W/m2
01:20 54.9 °F /  12.7 °C 16.7 °F /  -8.5 °C 29.83in /  1010hPa Calm     22% 0.00in /  0mm 0.0 W/m2
01:25 54.5 °F /  12.5 °C 16.3 °F /  -8.7 °C 29.83in /  1010hPa Calm     22% 0.00in /  0mm 0.0 W/m2
01:30 54.1 °F /  12.3 °C 15.1 °F /  -9.4 °C 29.83in /  1010hPa Calm     21% 0.00in /  0mm 0.0 W/m2
01:36 54.0 °F /  12.2 °C 16.0 °F /  -8.9 °C 29.83in /  1010hPa Calm     22% 0.00in /  0mm 0.0 W/m2
01:41 53.8 °F /  12.1 °C 15.8 °F /  -9 °C 29.83in /  1010hPa Calm     22% 0.00in /  0mm 0.0 W/m2
01:47 53.6 °F /  12 °C 15.6 °F /  -9.1 °C 29.83in /  1010hPa Calm     22% 0.00in /  0mm 0.0 W/m2
01:52 53.4 °F /  11.9 °C 16.5 °F /  -8.6 °C 29.83in /  1010hPa Calm     23% 0.00in /  0mm 0.0 W/m2
01:57 53.2 °F /  11.8 °C 16.3 °F /  -8.7 °C 29.83in /  1010hPa Calm     23% 0.00in /  0mm 0.0 W/m2
02:02 53.1 °F /  11.7 °C 16.2 °F /  -8.8 °C 29.83in /  1010hPa Calm     23% 0.00in /  0mm 0.0 W/m2
02:07 52.9 °F /  11.6 °C 16.2 °F /  -8.8 °C 29.83in /  1010hPa Calm     23% 0.00in /  0mm 0.0 W/m2
02:12 52.5 °F /  11.4 °C 16.7 °F /  -8.5 °C 29.83in /  1010hPa Calm     24% 0.00in /  0mm 0.0 W/m2
02:17 52.5 °F /  11.4 °C 16.7 °F /  -8.5 °C 29.83in /  1010hPa Calm     24% 0.00in /  0mm 0.0 W/m2
02:23 52.3 °F /  11.3 °C 17.6 °F /  -8 °C 29.83in /  1010hPa Calm     25% 0.00in /  0mm 0.0 W/m2
02:28 52.2 °F /  11.2 °C 17.4 °F /  -8.1 °C 29.83in /  1010hPa Calm     25% 0.00in /  0mm 0.0 W/m2
02:33 52.0 °F /  11.1 °C 17.2 °F /  -8.2 °C 29.83in /  1010hPa Calm     25% 0.00in /  0mm 0.0 W/m2
02:38 52.0 °F /  11.1 °C 17.2 °F /  -8.2 °C 29.83in /  1010hPa Calm     25% 0.00in /  0mm 0.0 W/m2
02:43 51.6 °F /  10.9 °C 16.9 °F /  -8.4 °C 29.82in /  1009.7hPa Calm     25% 0.00in /  0mm 0.0 W/m2
02:48 51.6 °F /  10.9 °C 16.9 °F /  -8.4 °C 29.82in /  1009.7hPa Calm     25% 0.00in /  0mm 0.0 W/m2
02:53 51.6 °F /  10.9 °C 16.9 °F /  -8.4 °C 29.82in /  1009.7hPa Calm     25% 0.00in /  0mm 0.0 W/m2
02:58 51.4 °F /  10.8 °C 16.7 °F /  -8.5 °C 29.82in /  1009.7hPa Calm     25% 0.00in /  0mm 0.0 W/m2
03:04 51.3 °F /  10.7 °C 16.7 °F /  -8.5 °C 29.82in /  1009.7hPa Calm     25% 0.00in /  0mm 0.0 W/m2
03:09 51.3 °F /  10.7 °C 16.7 °F /  -8.5 °C 29.82in /  1009.7hPa Calm     25% 0.00in /  0mm 0.0 W/m2
03:14 51.3 °F /  10.7 °C 16.7 °F /  -8.5 °C 29.82in /  1009.7hPa Calm     25% 0.00in /  0mm 0.0 W/m2
03:19 51.3 °F /  10.7 °C 17.6 °F /  -8 °C 29.81in /  1009.4hPa Calm     26% 0.00in /  0mm 0.0 W/m2
03:24 51.3 °F /  10.7 °C 16.7 °F /  -8.5 °C 29.82in /  1009.7hPa Calm     25% 0.00in /  0mm 0.0 W/m2
03:29 51.1 °F /  10.6 °C 17.4 °F /  -8.1 °C 29.81in /  1009.4hPa Calm     26% 0.00in /  0mm 0.0 W/m2
03:34 51.1 °F /  10.6 °C 17.4 °F /  -8.1 °C 29.81in /  1009.4hPa Calm     26% 0.00in /  0mm 0.0 W/m2
03:40 50.9 °F /  10.5 °C 17.2 °F /  -8.2 °C 29.81in /  1009.4hPa Calm     26% 0.00in /  0mm 0.0 W/m2
03:46 50.7 °F /  10.4 °C 17.1 °F /  -8.3 °C 29.81in /  1009.4hPa Calm     26% 0.00in /  0mm 0.0 W/m2
03:51 50.9 °F /  10.5 °C 17.2 °F /  -8.2 °C 29.81in /  1009.4hPa Calm     26% 0.00in /  0mm 0.0 W/m2
03:56 51.1 °F /  10.6 °C 17.4 °F /  -8.1 °C 29.82in /  1009.7hPa Calm     26% 0.00in /  0mm 0.0 W/m2
04:01 51.1 °F /  10.6 °C 17.4 °F /  -8.1 °C 29.81in /  1009.4hPa Calm     26% 0.00in /  0mm 0.0 W/m2
04:06 51.1 °F /  10.6 °C 17.4 °F /  -8.1 °C 29.81in /  1009.4hPa Calm     26% 0.00in /  0mm 0.0 W/m2
04:11 50.9 °F /  10.5 °C 17.2 °F /  -8.2 °C 29.81in /  1009.4hPa Calm     26% 0.00in /  0mm 0.0 W/m2
04:16 50.9 °F /  10.5 °C 18.1 °F /  -7.7 °C 29.81in /  1009.4hPa Calm     27% 0.00in /  0mm 0.0 W/m2
04:22 51.3 °F /  10.7 °C 16.7 °F /  -8.5 °C 29.81in /  1009.4hPa Calm   2.0mph /  3.2km/h 25% 0.00in /  0mm 0.0 W/m2
04:26 51.6 °F /  10.9 °C 16.9 °F /  -8.4 °C 29.81in /  1009.4hPa Calm     25% 0.00in /  0mm 0.0 W/m2
04:31 52.2 °F /  11.2 °C 16.5 °F /  -8.6 °C 29.81in /  1009.4hPa Calm   1.0mph /  1.6km/h 24% 0.00in /  0mm 0.0 W/m2
04:36 52.9 °F /  11.6 °C 17.1 °F /  -8.3 °C 29.82in /  1009.7hPa Calm     24% 0.00in /  0mm 0.0 W/m2
04:42 53.4 °F /  11.9 °C 16.5 °F /  -8.6 °C 29.82in /  1009.7hPa Calm   2.0mph /  3.2km/h 23% 0.00in /  0mm 0.0 W/m2
04:47 54.0 °F /  12.2 °C 16.0 °F /  -8.9 °C 29.82in /  1009.7hPa NNE 4.0mph /  6.4km/h 4.0mph /  6.4km/h 22% 0.00in /  0mm 0.0 W/m2
04:52 54.3 °F /  12.4 °C 16.3 °F /  -8.7 °C 29.82in /  1009.7hPa Calm   1.0mph /  1.6km/h 22% 0.00in /  0mm 0.0 W/m2
04:57 54.7 °F /  12.6 °C 15.4 °F /  -9.2 °C 29.82in /  1009.7hPa Calm   1.0mph /  1.6km/h 21% 0.00in /  0mm 0.0 W/m2
05:02 54.9 °F /  12.7 °C 16.7 °F /  -8.5 °C 29.82in /  1009.7hPa Calm     22% 0.00in /  0mm 0.0 W/m2
05:08 55.0 °F /  12.8 °C 15.8 °F /  -9 °C 29.82in /  1009.7hPa Calm     21% 0.00in /  0mm 0.0 W/m2
05:15 55.2 °F /  12.9 °C 16.0 °F /  -8.9 °C 29.82in /  1009.7hPa Calm   2.0mph /  3.2km/h 21% 0.00in /  0mm 0.0 W/m2
05:21 55.4 °F /  13 °C 16.2 °F /  -8.8 °C 29.83in /  1010hPa Calm     21% 0.00in /  0mm 0.0 W/m2
05:26 55.4 °F /  13 °C 16.2 °F /  -8.8 °C 29.83in /  1010hPa Calm     21% 0.00in /  0mm 0.0 W/m2
05:30 55.2 °F /  12.9 °C 16.0 °F /  -8.9 °C 29.83in /  1010hPa Calm     21% 0.00in /  0mm 0.0 W/m2
05:35 55.2 °F /  12.9 °C 16.0 °F /  -8.9 °C 29.83in /  1010hPa Calm   2.0mph /  3.2km/h 21% 0.00in /  0mm 0.0 W/m2
05:42 55.0 °F /  12.8 °C 16.9 °F /  -8.4 °C 29.83in /  1010hPa Calm     22% 0.00in /  0mm 0.0 W/m2
05:48 54.7 °F /  12.6 °C 16.5 °F /  -8.6 °C 29.83in /  1010hPa East 2.0mph /  3.2km/h 2.0mph /  3.2km/h 22% 0.00in /  0mm 0.0 W/m2
05:52 54.5 °F /  12.5 °C 16.3 °F /  -8.7 °C 29.84in /  1010.4hPa Calm   1.0mph /  1.6km/h 22% 0.00in /  0mm 0.0 W/m2
05:57 54.3 °F /  12.4 °C 16.3 °F /  -8.7 °C 29.84in /  1010.4hPa Calm     22% 0.00in /  0mm 0.0 W/m2
06:02 54.1 °F /  12.3 °C 16.2 °F /  -8.8 °C 29.84in /  1010.4hPa Calm   1.0mph /  1.6km/h 22% 0.00in /  0mm 0.0 W/m2
06:07 54.0 °F /  12.2 °C 16.0 °F /  -8.9 °C 29.84in /  1010.4hPa Calm     22% 0.00in /  0mm 0.0 W/m2
06:13 53.4 °F /  11.9 °C 15.4 °F /  -9.2 °C 29.84in /  1010.4hPa Calm     22% 0.00in /  0mm 0.0 W/m2
06:14 53.4 °F /  11.9 °C 15.4 °F /  -9.2 °C 29.84in /  1010.4hPa Calm     22% 0.00in /  0mm 0.0 W/m2
06:20 53.2 °F /  11.8 °C 16.3 °F /  -8.7 °C 29.84in /  1010.4hPa Calm     23% 0.00in /  0mm 0.0 W/m2
06:25 53.1 °F /  11.7 °C 16.2 °F /  -8.8 °C 29.84in /  1010.4hPa Calm   1.0mph /  1.6km/h 23% 0.00in /  0mm 0.0 W/m2
06:30 52.9 °F /  11.6 °C 16.2 °F /  -8.8 °C 29.84in /  1010.4hPa Calm   1.0mph /  1.6km/h 23% 0.00in /  0mm 5.0 W/m2
06:35 52.9 °F /  11.6 °C 16.2 °F /  -8.8 °C 29.84in /  1010.4hPa Calm     23% 0.00in /  0mm 7.0 W/m2
06:40 52.9 °F /  11.6 °C 16.2 °F /  -8.8 °C 29.84in /  1010.4hPa Calm   1.0mph /  1.6km/h 23% 0.00in /  0mm 11.0 W/m2
06:46 53.1 °F /  11.7 °C 16.2 °F /  -8.8 °C 29.84in /  1010.4hPa Calm     23% 0.00in /  0mm 12.0 W/m2
06:51 53.2 °F /  11.8 °C 16.3 °F /  -8.7 °C 29.85in /  1010.7hPa Calm   1.0mph /  1.6km/h 23% 0.00in /  0mm 12.0 W/m2
06:56 53.2 °F /  11.8 °C 17.4 °F /  -8.1 °C 29.85in /  1010.7hPa Calm     24% 0.00in /  0mm 14.0 W/m2
07:02 53.6 °F /  12 °C 16.7 °F /  -8.5 °C 29.85in /  1010.7hPa Calm     23% 0.00in /  0mm 16.0 W/m2
07:07 53.8 °F /  12.1 °C 16.9 °F /  -8.4 °C 29.85in /  1010.7hPa Calm   1.0mph /  1.6km/h 23% 0.00in /  0mm 18.0 W/m2
07:12 54.1 °F /  12.3 °C 17.1 °F /  -8.3 °C 29.85in /  1010.7hPa Calm   6.0mph /  9.7km/h 23% 0.00in /  0mm 19.0 W/m2
07:18 54.9 °F /  12.7 °C 16.7 °F /  -8.5 °C 29.85in /  1010.7hPa Calm   3.0mph /  4.8km/h 22% 0.00in /  0mm 19.0 W/m2
07:28 56.1 °F /  13.4 °C 16.7 °F /  -8.5 °C 29.85in /  1010.7hPa Calm   5.0mph /  8km/h 21% 0.00in /  0mm 23.0 W/m2
07:34 56.8 °F /  13.8 °C 17.2 °F /  -8.2 °C 29.85in /  1010.7hPa ESE 4.0mph /  6.4km/h 4.0mph /  6.4km/h 21% 0.00in /  0mm 49.0 W/m2
07:39 57.6 °F /  14.2 °C 18.0 °F /  -7.8 °C 29.85in /  1010.7hPa ESE 6.0mph /  9.7km/h 6.0mph /  9.7km/h 21% 0.00in /  0mm 26.0 W/m2
07:44 58.5 °F /  14.7 °C 17.6 °F /  -8 °C 29.85in /  1010.7hPa NE 2.9mph /  4.7km/h 9.0mph /  14.5km/h 20% 0.00in /  0mm 26.0 W/m2
07:49 59.2 °F /  15.1 °C 16.9 °F /  -8.4 °C 29.85in /  1010.7hPa NE 8.9mph /  14.3km/h 11.0mph /  17.7km/h 19% 0.00in /  0mm 35.0 W/m2
07:54 60.1 °F /  15.6 °C 17.6 °F /  -8 °C 29.85in /  1010.7hPa ENE 2.0mph /  3.2km/h 8.0mph /  12.9km/h 19% 0.00in /  0mm 28.0 W/m2
08:00 60.6 °F /  15.9 °C 16.9 °F /  -8.4 °C 29.86in /  1011.1hPa NE 2.0mph /  3.2km/h 11.0mph /  17.7km/h 18% 0.00in /  0mm 28.0 W/m2
08:05 61.2 °F /  16.2 °C 17.2 °F /  -8.2 °C 29.86in /  1011.1hPa ESE 4.9mph /  7.9km/h 5.0mph /  8km/h 18% 0.00in /  0mm 30.0 W/m2
08:10 61.5 °F /  16.4 °C 17.6 °F /  -8 °C 29.86in /  1011.1hPa East 8.1mph /  13km/h 11.0mph /  17.7km/h 18% 0.00in /  0mm 30.0 W/m2
08:16 62.1 °F /  16.7 °C 18.0 °F /  -7.8 °C 29.86in /  1011.1hPa ENE 4.9mph /  7.9km/h 11.0mph /  17.7km/h 18% 0.00in /  0mm 32.0 W/m2
08:21 62.4 °F /  16.9 °C 18.3 °F /  -7.6 °C 29.86in /  1011.1hPa NE 2.9mph /  4.7km/h 7.0mph /  11.3km/h 18% 0.00in /  0mm 33.0 W/m2
08:26 63.0 °F /  17.2 °C 18.9 °F /  -7.3 °C 29.86in /  1011.1hPa ESE 2.0mph /  3.2km/h 6.0mph /  9.7km/h 18% 0.00in /  0mm 120.0 W/m2
08:32 63.3 °F /  17.4 °C 17.8 °F /  -7.9 °C 29.86in /  1011.1hPa Calm   6.0mph /  9.7km/h 17% 0.00in /  0mm 489.0 W/m2
08:37 63.9 °F /  17.7 °C 18.1 °F /  -7.7 °C 29.86in /  1011.1hPa ESE 2.0mph /  3.2km/h 7.0mph /  11.3km/h 17% 0.00in /  0mm 512.0 W/m2
08:42 64.6 °F /  18.1 °C 18.9 °F /  -7.3 °C 29.86in /  1011.1hPa ENE 4.0mph /  6.4km/h 12.0mph /  19.3km/h 17% 0.00in /  0mm 529.0 W/m2
08:48 65.1 °F /  18.4 °C 17.8 °F /  -7.9 °C 29.85in /  1010.7hPa ESE 2.0mph /  3.2km/h 7.0mph /  11.3km/h 16% 0.00in /  0mm 554.0 W/m2
08:53 65.8 °F /  18.8 °C 18.3 °F /  -7.6 °C 29.85in /  1010.7hPa Calm   8.0mph /  12.9km/h 16% 0.00in /  0mm 568.0 W/m2
09:03 67.1 °F /  19.5 °C 18.0 °F /  -7.8 °C 29.85in /  1010.7hPa North 4.0mph /  6.4km/h 7.0mph /  11.3km/h 15% 0.00in /  0mm 606.0 W/m2
09:08 68.0 °F /  20 °C 18.7 °F /  -7.4 °C 29.85in /  1010.7hPa NE 4.0mph /  6.4km/h 7.0mph /  11.3km/h 15% 0.00in /  0mm 626.0 W/m2
09:13 69.1 °F /  20.6 °C 19.4 °F /  -7 °C 29.85in /  1010.7hPa ESE 4.9mph /  7.9km/h 9.0mph /  14.5km/h 15% 0.00in /  0mm 640.0 W/m2
09:18 70.0 °F /  21.1 °C 18.5 °F /  -7.5 °C 29.85in /  1010.7hPa NNE 2.0mph /  3.2km/h 9.0mph /  14.5km/h 14% 0.00in /  0mm 657.0 W/m2
09:23 70.5 °F /  21.4 °C 19.0 °F /  -7.2 °C 29.85in /  1010.7hPa East 0.9mph /  1.4km/h 6.0mph /  9.7km/h 14% 0.00in /  0mm 677.0 W/m2
09:29 71.2 °F /  21.8 °C 19.6 °F /  -6.9 °C 29.85in /  1010.7hPa South 4.9mph /  7.9km/h 7.0mph /  11.3km/h 14% 0.00in /  0mm 696.0 W/m2
09:34 71.8 °F /  22.1 °C 19.9 °F /  -6.7 °C 29.85in /  1010.7hPa ENE 4.0mph /  6.4km/h 7.0mph /  11.3km/h 14% 0.00in /  0mm 710.0 W/m2
09:39 72.1 °F /  22.3 °C 18.5 °F /  -7.5 °C 29.85in /  1010.7hPa NNE 0.9mph /  1.4km/h 8.0mph /  12.9km/h 13% 0.00in /  0mm 724.0 W/m2
09:45 72.9 °F /  22.7 °C 19.2 °F /  -7.1 °C 29.84in /  1010.4hPa NE 2.0mph /  3.2km/h 7.0mph /  11.3km/h 13% 0.00in /  0mm 744.0 W/m2
09:50 73.6 °F /  23.1 °C 19.8 °F /  -6.8 °C 29.84in /  1010.4hPa Calm   6.0mph /  9.7km/h 13% 0.00in /  0mm 759.0 W/m2
09:55 74.5 °F /  23.6 °C 18.5 °F /  -7.5 °C 29.84in /  1010.4hPa NNW 4.0mph /  6.4km/h 6.0mph /  9.7km/h 12% 0.00in /  0mm 772.0 W/m2
10:00 75.4 °F /  24.1 °C 19.2 °F /  -7.1 °C 29.84in /  1010.4hPa NW 0.9mph /  1.4km/h 2.0mph /  3.2km/h 12% 0.00in /  0mm 788.0 W/m2
10:05 75.6 °F /  24.2 °C 19.4 °F /  -7 °C 29.84in /  1010.4hPa Calm   4.0mph /  6.4km/h 12% 0.00in /  0mm 803.0 W/m2
10:11 76.3 °F /  24.6 °C 18.0 °F /  -7.8 °C 29.84in /  1010.4hPa NW 0.9mph /  1.4km/h 7.0mph /  11.3km/h 11% 0.00in /  0mm 821.0 W/m2
10:16 76.6 °F /  24.8 °C 18.1 °F /  -7.7 °C 29.84in /  1010.4hPa NNW 2.0mph /  3.2km/h 7.0mph /  11.3km/h 11% 0.00in /  0mm 831.0 W/m2
10:27 77.4 °F /  25.2 °C 18.7 °F /  -7.4 °C 29.84in /  1010.4hPa NNE 4.0mph /  6.4km/h 11.0mph /  17.7km/h 11% 0.00in /  0mm 861.0 W/m2
10:32 77.4 °F /  25.2 °C 18.7 °F /  -7.4 °C 29.84in /  1010.4hPa WNW 0.9mph /  1.4km/h 5.0mph /  8km/h 11% 0.00in /  0mm 875.0 W/m2
10:37 77.7 °F /  25.4 °C 19.0 °F /  -7.2 °C 29.83in /  1010hPa NW 2.0mph /  3.2km/h 4.0mph /  6.4km/h 11% 0.00in /  0mm 888.0 W/m2
10:43 78.3 °F /  25.7 °C 19.4 °F /  -7 °C 29.83in /  1010hPa Calm   3.0mph /  4.8km/h 11% 0.00in /  0mm 895.0 W/m2
10:48 78.6 °F /  25.9 °C 15.1 °F /  -9.4 °C 29.83in /  1010hPa West 0.9mph /  1.4km/h 10.0mph /  16.1km/h 9% 0.00in /  0mm 909.0 W/m2
10:53 79.2 °F /  26.2 °C 15.4 °F /  -9.2 °C 29.83in /  1010hPa NNW 2.9mph /  4.7km/h 8.0mph /  12.9km/h 9% 0.00in /  0mm 914.0 W/m2
11:03 79.3 °F /  26.3 °C 18.0 °F /  -7.8 °C 29.83in /  1010hPa WSW 0.9mph /  1.4km/h 6.0mph /  9.7km/h 10% 0.00in /  0mm 935.0 W/m2
11:08 79.3 °F /  26.3 °C 18.0 °F /  -7.8 °C 29.83in /  1010hPa WNW 4.0mph /  6.4km/h 10.0mph /  16.1km/h 10% 0.00in /  0mm 944.0 W/m2
11:13 79.5 °F /  26.4 °C 15.8 °F /  -9 °C 29.82in /  1009.7hPa West 0.9mph /  1.4km/h 6.0mph /  9.7km/h 9% 0.00in /  0mm 954.0 W/m2
11:19 79.9 °F /  26.6 °C 16.0 °F /  -8.9 °C 29.82in /  1009.7hPa WNW 0.9mph /  1.4km/h 8.0mph /  12.9km/h 9% 0.00in /  0mm 967.0 W/m2
11:24 80.1 °F /  26.7 °C 16.2 °F /  -8.8 °C 29.82in /  1009.7hPa NNW 2.9mph /  4.7km/h 5.0mph /  8km/h 9% 0.00in /  0mm 969.0 W/m2
11:29 80.1 °F /  26.7 °C 16.2 °F /  -8.8 °C 29.81in /  1009.4hPa Calm   5.0mph /  8km/h 9% 0.00in /  0mm 977.0 W/m2
11:34 80.6 °F /  27 °C 16.5 °F /  -8.6 °C 29.81in /  1009.4hPa NNW 2.9mph /  4.7km/h 4.0mph /  6.4km/h 9% 0.00in /  0mm 981.0 W/m2
11:39 81.1 °F /  27.3 °C 16.9 °F /  -8.4 °C 29.81in /  1009.4hPa NNW 4.0mph /  6.4km/h 6.0mph /  9.7km/h 9% 0.00in /  0mm 990.0 W/m2
11:49 81.7 °F /  27.6 °C 17.4 °F /  -8.1 °C 29.81in /  1009.4hPa West 2.9mph /  4.7km/h 11.0mph /  17.7km/h 9% 0.00in /  0mm 1000.0 W/m2
11:55 81.5 °F /  27.5 °C 17.2 °F /  -8.2 °C 29.80in /  1009hPa Calm   9.0mph /  14.5km/h 9% 0.00in /  0mm 1007.0 W/m2
12:01 81.3 °F /  27.4 °C 17.1 °F /  -8.3 °C 29.81in /  1009.4hPa West 2.0mph /  3.2km/h 9.0mph /  14.5km/h 9% 0.00in /  0mm 1005.0 W/m2
12:06 81.1 °F /  27.3 °C 16.9 °F /  -8.4 °C 29.80in /  1009hPa Calm   9.0mph /  14.5km/h 9% 0.00in /  0mm 1007.0 W/m2
12:11 81.3 °F /  27.4 °C 17.1 °F /  -8.3 °C 29.80in /  1009hPa WNW 4.9mph /  7.9km/h 11.0mph /  17.7km/h 9% 0.00in /  0mm 1014.0 W/m2
12:16 81.3 °F /  27.4 °C 14.4 °F /  -9.8 °C 29.80in /  1009hPa NE 4.0mph /  6.4km/h 9.0mph /  14.5km/h 8% 0.00in /  0mm 1025.0 W/m2
12:21 81.5 °F /  27.5 °C 14.5 °F /  -9.7 °C 29.80in /  1009hPa West 2.9mph /  4.7km/h 12.0mph /  19.3km/h 8% 0.00in /  0mm 1020.0 W/m2
12:26 81.7 °F /  27.6 °C 11.7 °F /  -11.3 °C 29.80in /  1009hPa West 2.9mph /  4.7km/h 6.0mph /  9.7km/h 7% 0.00in /  0mm 1021.0 W/m2
12:31 81.7 °F /  27.6 °C 11.7 °F /  -11.3 °C 29.80in /  1009hPa Calm   5.0mph /  8km/h 7% 0.00in /  0mm 1028.0 W/m2
12:36 82.0 °F /  27.8 °C 11.8 °F /  -11.2 °C 29.80in /  1009hPa NNW 8.9mph /  14.3km/h 15.0mph /  24.1km/h 7% 0.00in /  0mm 1023.0 W/m2
12:41 82.2 °F /  27.9 °C 15.1 °F /  -9.4 °C 29.79in /  1008.7hPa Calm   10.0mph /  16.1km/h 8% 0.00in /  0mm 1023.0 W/m2
12:46 82.6 °F /  28.1 °C 12.2 °F /  -11 °C 29.79in /  1008.7hPa NNE 6.9mph /  11.1km/h 10.0mph /  16.1km/h 7% 0.00in /  0mm 1023.0 W/m2
12:51 82.8 °F /  28.2 °C 12.4 °F /  -10.9 °C 29.79in /  1008.7hPa West 2.0mph /  3.2km/h 6.0mph /  9.7km/h 7% 0.00in /  0mm 1016.0 W/m2
13:01 83.1 °F /  28.4 °C 12.7 °F /  -10.7 °C 29.78in /  1008.4hPa WNW 0.9mph /  1.4km/h 11.0mph /  17.7km/h 7% 0.00in /  0mm 1004.0 W/m2
13:12 83.5 °F /  28.6 °C 12.9 °F /  -10.6 °C 29.78in /  1008.4hPa NNW 4.0mph /  6.4km/h 8.0mph /  12.9km/h 7% 0.00in /  0mm 1007.0 W/m2
13:17 83.5 °F /  28.6 °C 12.9 °F /  -10.6 °C 29.77in /  1008hPa NW 11.0mph /  17.7km/h 11.0mph /  17.7km/h 7% 0.00in /  0mm 1004.0 W/m2
13:22 83.5 °F /  28.6 °C 12.9 °F /  -10.6 °C 29.78in /  1008.4hPa NNW 2.0mph /  3.2km/h 11.0mph /  17.7km/h 7% 0.00in /  0mm 993.0 W/m2
13:27 83.7 °F /  28.7 °C 13.1 °F /  -10.5 °C 29.77in /  1008hPa Calm   3.0mph /  4.8km/h 7% 0.00in /  0mm 988.0 W/m2
13:32 84.6 °F /  29.2 °C 10.2 °F /  -12.1 °C 29.78in /  1008.4hPa NNE 4.9mph /  7.9km/h 13.0mph /  20.9km/h 6% 0.00in /  0mm 986.0 W/m2
13:37 84.4 °F /  29.1 °C 10.0 °F /  -12.2 °C 29.77in /  1008hPa NE 4.9mph /  7.9km/h 9.0mph /  14.5km/h 6% 0.00in /  0mm 983.0 W/m2
13:42 84.4 °F /  29.1 °C 10.0 °F /  -12.2 °C 29.77in /  1008hPa Calm   7.0mph /  11.3km/h 6% 0.00in /  0mm 970.0 W/m2
13:47 84.6 °F /  29.2 °C 10.2 °F /  -12.1 °C 29.77in /  1008hPa NW 6.0mph /  9.7km/h 15.0mph /  24.1km/h 6% 0.00in /  0mm 962.0 W/m2
13:52 84.7 °F /  29.3 °C 10.4 °F /  -12 °C 29.77in /  1008hPa NNE 0.9mph /  1.4km/h 7.0mph /  11.3km/h 6% 0.00in /  0mm 953.0 W/m2
13:57 84.6 °F /  29.2 °C 10.2 °F /  -12.1 °C 29.76in /  1007.7hPa NW 0.9mph /  1.4km/h 8.0mph /  12.9km/h 6% 0.00in /  0mm 947.0 W/m2
14:02 84.6 °F /  29.2 °C 10.2 °F /  -12.1 °C 29.76in /  1007.7hPa NNW 6.0mph /  9.7km/h 10.0mph /  16.1km/h 6% 0.00in /  0mm 933.0 W/m2
14:08 84.7 °F /  29.3 °C 10.4 °F /  -12 °C 29.76in /  1007.7hPa North 6.0mph /  9.7km/h 11.0mph /  17.7km/h 6% 0.00in /  0mm 923.0 W/m2
14:13 85.5 °F /  29.7 °C 10.9 °F /  -11.7 °C 29.75in /  1007.3hPa NW 13.0mph /  20.9km/h 17.0mph /  27.4km/h 6% 0.00in /  0mm 907.0 W/m2
14:18 85.6 °F /  29.8 °C 10.9 °F /  -11.7 °C 29.75in /  1007.3hPa SW 4.0mph /  6.4km/h 10.0mph /  16.1km/h 6% 0.00in /  0mm 904.0 W/m2
14:25 85.5 °F /  29.7 °C 10.9 °F /  -11.7 °C 29.75in /  1007.3hPa WNW 6.9mph /  11.1km/h 8.0mph /  12.9km/h 6% 0.00in /  0mm 895.0 W/m2
14:30 85.8 °F /  29.9 °C 11.1 °F /  -11.6 °C 29.75in /  1007.3hPa WSW 6.9mph /  11.1km/h 13.0mph /  20.9km/h 6% 0.00in /  0mm 874.0 W/m2
14:35 85.1 °F /  29.5 °C 10.6 °F /  -11.9 °C 29.75in /  1007.3hPa Calm   9.0mph /  14.5km/h 6% 0.00in /  0mm 865.0 W/m2
14:40 84.9 °F /  29.4 °C 6.4 °F /  -14.2 °C 29.74in /  1007hPa NW 6.9mph /  11.1km/h 13.0mph /  20.9km/h 5% 0.00in /  0mm 863.0 W/m2
14:45 85.1 °F /  29.5 °C 6.6 °F /  -14.1 °C 29.74in /  1007hPa NNW 2.9mph /  4.7km/h 10.0mph /  16.1km/h 5% 0.00in /  0mm 847.0 W/m2
14:50 85.5 °F /  29.7 °C 10.9 °F /  -11.7 °C 29.74in /  1007hPa Calm   7.0mph /  11.3km/h 6% 0.00in /  0mm 838.0 W/m2
14:55 86.2 °F /  30.1 °C 7.3 °F /  -13.7 °C 29.74in /  1007hPa NW 0.9mph /  1.4km/h 8.0mph /  12.9km/h 5% 0.00in /  0mm 823.0 W/m2
15:00 86.2 °F /  30.1 °C 7.3 °F /  -13.7 °C 29.74in /  1007hPa NNW 2.9mph /  4.7km/h 11.0mph /  17.7km/h 5% 0.00in /  0mm 809.0 W/m2
15:05 86.4 °F /  30.2 °C 7.5 °F /  -13.6 °C 29.74in /  1007hPa WSW 2.0mph /  3.2km/h 10.0mph /  16.1km/h 5% 0.00in /  0mm 796.0 W/m2
15:11 86.2 °F /  30.1 °C 7.3 °F /  -13.7 °C 29.74in /  1007hPa NW 0.9mph /  1.4km/h 13.0mph /  20.9km/h 5% 0.00in /  0mm 784.0 W/m2
15:16 86.2 °F /  30.1 °C 7.3 °F /  -13.7 °C 29.73in /  1006.7hPa NW 4.0mph /  6.4km/h 8.0mph /  12.9km/h 5% 0.00in /  0mm 766.0 W/m2
15:22 86.4 °F /  30.2 °C 7.5 °F /  -13.6 °C 29.73in /  1006.7hPa West 2.0mph /  3.2km/h 13.0mph /  20.9km/h 5% 0.00in /  0mm 747.0 W/m2
15:27 85.5 °F /  29.7 °C 6.8 °F /  -14 °C 29.73in /  1006.7hPa WNW 4.9mph /  7.9km/h 14.0mph /  22.5km/h 5% 0.00in /  0mm 733.0 W/m2
15:32 85.1 °F /  29.5 °C 6.6 °F /  -14.1 °C 29.73in /  1006.7hPa NNW 4.0mph /  6.4km/h 12.0mph /  19.3km/h 5% 0.00in /  0mm 715.0 W/m2
15:37 85.5 °F /  29.7 °C 6.8 °F /  -14 °C 29.73in /  1006.7hPa NNW 0.9mph /  1.4km/h 13.0mph /  20.9km/h 5% 0.00in /  0mm 700.0 W/m2
15:42 85.6 °F /  29.8 °C 10.9 °F /  -11.7 °C 29.72in /  1006.3hPa NW 2.0mph /  3.2km/h 5.0mph /  8km/h 6% 0.00in /  0mm 684.0 W/m2
15:47 85.8 °F /  29.9 °C 7.2 °F /  -13.8 °C 29.72in /  1006.3hPa West 2.0mph /  3.2km/h 8.0mph /  12.9km/h 5% 0.00in /  0mm 670.0 W/m2
15:53 86.0 °F /  30 °C 7.2 °F /  -13.8 °C 29.72in /  1006.3hPa NNW 4.0mph /  6.4km/h 9.0mph /  14.5km/h 5% 0.00in /  0mm 654.0 W/m2
15:58 86.2 °F /  30.1 °C 7.3 °F /  -13.7 °C 29.72in /  1006.3hPa NW 0.9mph /  1.4km/h 8.0mph /  12.9km/h 5% 0.00in /  0mm 633.0 W/m2
16:03 86.2 °F /  30.1 °C 7.3 °F /  -13.7 °C 29.72in /  1006.3hPa NW 2.9mph /  4.7km/h 13.0mph /  20.9km/h 5% 0.00in /  0mm 617.0 W/m2
16:08 85.8 °F /  29.9 °C 7.2 °F /  -13.8 °C 29.72in /  1006.3hPa WNW 8.1mph /  13km/h 12.0mph /  19.3km/h 5% 0.00in /  0mm 596.0 W/m2
16:13 86.0 °F /  30 °C 7.2 °F /  -13.8 °C 29.72in /  1006.3hPa West 11.0mph /  17.7km/h 13.0mph /  20.9km/h 5% 0.00in /  0mm 585.0 W/m2
16:23 85.5 °F /  29.7 °C 6.8 °F /  -14 °C 29.73in /  1006.7hPa Calm   13.0mph /  20.9km/h 5% 0.00in /  0mm 547.0 W/m2
16:28 85.5 °F /  29.7 °C 6.8 °F /  -14 °C 29.73in /  1006.7hPa NW 2.9mph /  4.7km/h 9.0mph /  14.5km/h 5% 0.00in /  0mm 527.0 W/m2
16:33 85.6 °F /  29.8 °C 2.1 °F /  -16.6 °C 29.73in /  1006.7hPa West 2.9mph /  4.7km/h 14.0mph /  22.5km/h 4% 0.00in /  0mm 512.0 W/m2
16:38 85.3 °F /  29.6 °C 6.8 °F /  -14 °C 29.73in /  1006.7hPa NW 8.9mph /  14.3km/h 11.0mph /  17.7km/h 5% 0.00in /  0mm 487.0 W/m2
16:49 85.1 °F /  29.5 °C 6.6 °F /  -14.1 °C 29.73in /  1006.7hPa SW 4.0mph /  6.4km/h 9.0mph /  14.5km/h 5% 0.00in /  0mm 446.0 W/m2
16:54 85.1 °F /  29.5 °C 6.6 °F /  -14.1 °C 29.73in /  1006.7hPa Calm   7.0mph /  11.3km/h 5% 0.00in /  0mm 429.0 W/m2
16:59 85.3 °F /  29.6 °C 6.8 °F /  -14 °C 29.73in /  1006.7hPa West 2.9mph /  4.7km/h 8.0mph /  12.9km/h 5% 0.00in /  0mm 408.0 W/m2
17:04 85.5 °F /  29.7 °C 6.8 °F /  -14 °C 29.73in /  1006.7hPa SW 2.9mph /  4.7km/h 6.0mph /  9.7km/h 5% 0.00in /  0mm 388.0 W/m2
17:09 85.8 °F /  29.9 °C 7.2 °F /  -13.8 °C 29.73in /  1006.7hPa NW 8.1mph /  13km/h 8.1mph /  13km/h 5% 0.00in /  0mm 367.0 W/m2
17:14 85.6 °F /  29.8 °C 7.0 °F /  -13.9 °C 29.73in /  1006.7hPa NW 0.9mph /  1.4km/h 4.0mph /  6.4km/h 5% 0.00in /  0mm 350.0 W/m2
17:19 86.2 °F /  30.1 °C 7.3 °F /  -13.7 °C 29.73in /  1006.7hPa West 2.9mph /  4.7km/h 3.0mph /  4.8km/h 5% 0.00in /  0mm 329.0 W/m2
17:24 85.8 °F /  29.9 °C 2.3 °F /  -16.5 °C 29.73in /  1006.7hPa WNW 4.0mph /  6.4km/h 8.0mph /  12.9km/h 4% 0.00in /  0mm 308.0 W/m2
17:29 85.3 °F /  29.6 °C 1.9 °F /  -16.7 °C 29.73in /  1006.7hPa NNW 6.0mph /  9.7km/h 11.0mph /  17.7km/h 4% 0.00in /  0mm 287.0 W/m2
17:34 84.9 °F /  29.4 °C 6.4 °F /  -14.2 °C 29.74in /  1007hPa WSW 2.0mph /  3.2km/h 9.0mph /  14.5km/h 5% 0.00in /  0mm 269.0 W/m2
17:39 84.9 °F /  29.4 °C 1.6 °F /  -16.9 °C 29.74in /  1007hPa NW 0.9mph /  1.4km/h 6.0mph /  9.7km/h 4% 0.00in /  0mm 251.0 W/m2
17:44 84.9 °F /  29.4 °C 1.6 °F /  -16.9 °C 29.74in /  1007hPa NW 4.0mph /  6.4km/h 8.0mph /  12.9km/h 4% 0.00in /  0mm 230.0 W/m2
17:49 84.4 °F /  29.1 °C 1.2 °F /  -17.1 °C 29.74in /  1007hPa WNW 2.0mph /  3.2km/h 12.0mph /  19.3km/h 4% 0.00in /  0mm 211.0 W/m2
17:54 83.8 °F /  28.8 °C 0.9 °F /  -17.3 °C 29.74in /  1007hPa NNW 0.9mph /  1.4km/h 8.0mph /  12.9km/h 4% 0.00in /  0mm 190.0 W/m2
18:00 83.7 °F /  28.7 °C 0.7 °F /  -17.4 °C 29.74in /  1007hPa NW 4.0mph /  6.4km/h 11.0mph /  17.7km/h 4% 0.00in /  0mm 169.0 W/m2
18:05 83.5 °F /  28.6 °C 0.7 °F /  -17.4 °C 29.74in /  1007hPa WNW 2.9mph /  4.7km/h 8.0mph /  12.9km/h 4% 0.00in /  0mm 144.0 W/m2
18:10 83.1 °F /  28.4 °C 0.3 °F /  -17.6 °C 29.74in /  1007hPa West 2.9mph /  4.7km/h 7.0mph /  11.3km/h 4% 0.00in /  0mm 120.0 W/m2
18:15 82.2 °F /  27.9 °C -0.2 °F /  -17.9 °C 29.74in /  1007hPa West 4.9mph /  7.9km/h 13.0mph /  20.9km/h 4% 0.00in /  0mm 91.0 W/m2
18:20 81.7 °F /  27.6 °C 4.1 °F /  -15.5 °C 29.74in /  1007hPa WNW 2.0mph /  3.2km/h 5.0mph /  8km/h 5% 0.00in /  0mm 74.0 W/m2
18:25 81.3 °F /  27.4 °C 7.9 °F /  -13.4 °C 29.75in /  1007.3hPa WNW 2.9mph /  4.7km/h 8.0mph /  12.9km/h 6% 0.00in /  0mm 53.0 W/m2
18:40 79.9 °F /  26.6 °C 6.8 °F /  -14 °C 29.75in /  1007.3hPa West 2.9mph /  4.7km/h 3.0mph /  4.8km/h 6% 0.00in /  0mm 12.0 W/m2
18:45 79.2 °F /  26.2 °C 6.4 °F /  -14.2 °C 29.75in /  1007.3hPa WSW 0.9mph /  1.4km/h 3.0mph /  4.8km/h 6% 0.00in /  0mm 7.0 W/m2
18:51 78.4 °F /  25.8 °C 5.9 °F /  -14.5 °C 29.75in /  1007.3hPa Calm   3.0mph /  4.8km/h 6% 0.00in /  0mm 5.0 W/m2
18:56 77.9 °F /  25.5 °C 5.5 °F /  -14.7 °C 29.75in /  1007.3hPa WNW 0.9mph /  1.4km/h 3.0mph /  4.8km/h 6% 0.00in /  0mm 0.0 W/m2
19:01 77.4 °F /  25.2 °C 5.0 °F /  -15 °C 29.76in /  1007.7hPa West 0.9mph /  1.4km/h 7.0mph /  11.3km/h 6% 0.00in /  0mm 0.0 W/m2
19:06 76.8 °F /  24.9 °C 8.1 °F /  -13.3 °C 29.76in /  1007.7hPa West 2.0mph /  3.2km/h 2.0mph /  3.2km/h 7% 0.00in /  0mm 0.0 W/m2
19:11 76.5 °F /  24.7 °C 7.9 °F /  -13.4 °C 29.76in /  1007.7hPa Calm   3.0mph /  4.8km/h 7% 0.00in /  0mm 0.0 W/m2
19:16 75.9 °F /  24.4 °C 7.3 °F /  -13.7 °C 29.76in /  1007.7hPa Calm   5.0mph /  8km/h 7% 0.00in /  0mm 0.0 W/m2
19:21 75.6 °F /  24.2 °C 7.2 °F /  -13.8 °C 29.76in /  1007.7hPa Calm   1.0mph /  1.6km/h 7% 0.00in /  0mm 0.0 W/m2
19:26 75.2 °F /  24 °C 6.8 °F /  -14 °C 29.77in /  1008hPa West 6.0mph /  9.7km/h 6.0mph /  9.7km/h 7% 0.00in /  0mm 0.0 W/m2
19:31 74.7 °F /  23.7 °C 14.5 °F /  -9.7 °C 29.77in /  1008hPa Calm   4.0mph /  6.4km/h 10% 0.00in /  0mm 0.0 W/m2
19:37 74.3 °F /  23.5 °C 18.3 °F /  -7.6 °C 29.78in /  1008.4hPa Calm   3.0mph /  4.8km/h 12% 0.00in /  0mm 0.0 W/m2
19:42 73.8 °F /  23.2 °C 23.2 °F /  -4.9 °C 29.78in /  1008.4hPa West 0.9mph /  1.4km/h 5.0mph /  8km/h 15% 0.00in /  0mm 0.0 W/m2
19:47 73.0 °F /  22.8 °C 24.3 °F /  -4.3 °C 29.78in /  1008.4hPa WSW 0.9mph /  1.4km/h 3.0mph /  4.8km/h 16% 0.00in /  0mm 0.0 W/m2
19:52 72.7 °F /  22.6 °C 23.9 °F /  -4.5 °C 29.78in /  1008.4hPa WSW 2.9mph /  4.7km/h 3.0mph /  4.8km/h 16% 0.00in /  0mm 0.0 W/m2
19:57 72.3 °F /  22.4 °C 25.0 °F /  -3.9 °C 29.79in /  1008.7hPa Calm   2.0mph /  3.2km/h 17% 0.00in /  0mm 0.0 W/m2
20:02 72.0 °F /  22.2 °C 24.8 °F /  -4 °C 29.79in /  1008.7hPa Calm   2.0mph /  3.2km/h 17% 0.00in /  0mm 0.0 W/m2
20:07 71.6 °F /  22 °C 25.9 °F /  -3.4 °C 29.79in /  1008.7hPa Calm   5.0mph /  8km/h 18% 0.00in /  0mm 0.0 W/m2
20:13 71.2 °F /  21.8 °C 25.5 °F /  -3.6 °C 29.80in /  1009hPa Calm   1.0mph /  1.6km/h 18% 0.00in /  0mm 0.0 W/m2
20:18 70.9 °F /  21.6 °C 26.6 °F /  -3 °C 29.80in /  1009hPa Calm   1.0mph /  1.6km/h 19% 0.00in /  0mm 0.0 W/m2
20:24 70.5 °F /  21.4 °C 26.2 °F /  -3.2 °C 29.80in /  1009hPa West 0.9mph /  1.4km/h 2.0mph /  3.2km/h 19% 0.00in /  0mm 0.0 W/m2
20:29 70.2 °F /  21.2 °C 26.1 °F /  -3.3 °C 29.80in /  1009hPa Calm   3.0mph /  4.8km/h 19% 0.00in /  0mm 0.0 W/m2
20:34 70.0 °F /  21.1 °C 27.1 °F /  -2.7 °C 29.80in /  1009hPa Calm     20% 0.00in /  0mm 0.0 W/m2
20:39 69.6 °F /  20.9 °C 26.8 °F /  -2.9 °C 29.81in /  1009.4hPa Calm     20% 0.00in /  0mm 0.0 W/m2
20:44 69.3 °F /  20.7 °C 27.7 °F /  -2.4 °C 29.81in /  1009.4hPa Calm     21% 0.00in /  0mm 0.0 W/m2
20:49 68.9 °F /  20.5 °C 27.3 °F /  -2.6 °C 29.82in /  1009.7hPa Calm     21% 0.00in /  0mm 0.0 W/m2
20:54 68.5 °F /  20.3 °C 27.1 °F /  -2.7 °C 29.82in /  1009.7hPa Calm     21% 0.00in /  0mm 0.0 W/m2
20:59 68.2 °F /  20.1 °C 27.9 °F /  -2.3 °C 29.82in /  1009.7hPa Calm     22% 0.00in /  0mm 0.0 W/m2
21:05 67.6 °F /  19.8 °C 27.5 °F /  -2.5 °C 29.82in /  1009.7hPa West 0.9mph /  1.4km/h 2.0mph /  3.2km/h 22% 0.00in /  0mm 0.0 W/m2
21:10 67.5 °F /  19.7 °C 27.3 °F /  -2.6 °C 29.82in /  1009.7hPa Calm   1.0mph /  1.6km/h 22% 0.00in /  0mm 0.0 W/m2
21:15 67.1 °F /  19.5 °C 28.0 °F /  -2.2 °C 29.82in /  1009.7hPa Calm   1.0mph /  1.6km/h 23% 0.00in /  0mm 0.0 W/m2
21:20 66.9 °F /  19.4 °C 27.9 °F /  -2.3 °C 29.82in /  1009.7hPa Calm     23% 0.00in /  0mm 0.0 W/m2
21:25 66.6 °F /  19.2 °C 27.7 °F /  -2.4 °C 29.83in /  1010hPa Calm     23% 0.00in /  0mm 0.0 W/m2
21:30 66.4 °F /  19.1 °C 27.5 °F /  -2.5 °C 29.83in /  1010hPa Calm     23% 0.00in /  0mm 0.0 W/m2
21:35 66.0 °F /  18.9 °C 28.2 °F /  -2.1 °C 29.83in /  1010hPa Calm     24% 0.00in /  0mm 0.0 W/m2
21:40 65.7 °F /  18.7 °C 27.9 °F /  -2.3 °C 29.83in /  1010hPa Calm     24% 0.00in /  0mm 0.0 W/m2
21:50 64.8 °F /  18.2 °C 28.0 °F /  -2.2 °C 29.83in /  1010hPa Calm     25% 0.00in /  0mm 0.0 W/m2
21:56 64.4 °F /  18 °C 27.9 °F /  -2.3 °C 29.83in /  1010hPa Calm     25% 0.00in /  0mm 0.0 W/m2
22:01 63.9 °F /  17.7 °C 27.3 °F /  -2.6 °C 29.83in /  1010hPa Calm     25% 0.00in /  0mm 0.0 W/m2
22:11 63.1 °F /  17.3 °C 27.7 °F /  -2.4 °C 29.84in /  1010.4hPa Calm     26% 0.00in /  0mm 0.0 W/m2
22:16 62.8 °F /  17.1 °C 28.2 °F /  -2.1 °C 29.84in /  1010.4hPa Calm     27% 0.00in /  0mm 0.0 W/m2
22:21 62.4 °F /  16.9 °C 28.0 °F /  -2.2 °C 29.84in /  1010.4hPa Calm     27% 0.00in /  0mm 0.0 W/m2
22:26 62.1 °F /  16.7 °C 27.7 °F /  -2.4 °C 29.84in /  1010.4hPa Calm     27% 0.00in /  0mm 0.0 W/m2
22:31 61.5 °F /  16.4 °C 26.2 °F /  -3.2 °C 29.84in /  1010.4hPa Calm     26% 0.00in /  0mm 0.0 W/m2
22:36 61.0 °F /  16.1 °C 26.8 °F /  -2.9 °C 29.84in /  1010.4hPa Calm     27% 0.00in /  0mm 0.0 W/m2
22:42 60.6 °F /  15.9 °C 26.4 °F /  -3.1 °C 29.84in /  1010.4hPa Calm     27% 0.00in /  0mm 0.0 W/m2
22:47 60.3 °F /  15.7 °C 26.1 °F /  -3.3 °C 29.84in /  1010.4hPa Calm   2.0mph /  3.2km/h 27% 0.00in /  0mm 0.0 W/m2
22:52 59.9 °F /  15.5 °C 25.9 °F /  -3.4 °C 29.85in /  1010.7hPa Calm     27% 0.00in /  0mm 0.0 W/m2
22:57 59.5 °F /  15.3 °C 25.5 °F /  -3.6 °C 29.84in /  1010.4hPa Calm   4.0mph /  6.4km/h 27% 0.00in /  0mm 0.0 W/m2
23:02 59.5 °F /  15.3 °C 25.5 °F /  -3.6 °C 29.84in /  1010.4hPa Calm   3.0mph /  4.8km/h 27% 0.00in /  0mm 0.0 W/m2
23:07 59.5 °F /  15.3 °C 25.5 °F /  -3.6 °C 29.85in /  1010.7hPa East 0.9mph /  1.4km/h 4.0mph /  6.4km/h 27% 0.00in /  0mm 0.0 W/m2
23:12 59.5 °F /  15.3 °C 25.5 °F /  -3.6 °C 29.84in /  1010.4hPa Calm   3.0mph /  4.8km/h 27% 0.00in /  0mm 0.0 W/m2
23:17 59.4 °F /  15.2 °C 25.3 °F /  -3.7 °C 29.85in /  1010.7hPa Calm   3.0mph /  4.8km/h 27% 0.00in /  0mm 0.0 W/m2
23:22 59.2 °F /  15.1 °C 25.2 °F /  -3.8 °C 29.85in /  1010.7hPa Calm   1.0mph /  1.6km/h 27% 0.00in /  0mm 0.0 W/m2
23:27 58.8 °F /  14.9 °C 25.0 °F /  -3.9 °C 29.85in /  1010.7hPa ENE 0.9mph /  1.4km/h 2.0mph /  3.2km/h 27% 0.00in /  0mm 0.0 W/m2
23:33 58.6 °F /  14.8 °C 24.8 °F /  -4 °C 29.85in /  1010.7hPa East 0.9mph /  1.4km/h 2.0mph /  3.2km/h 27% 0.00in /  0mm 0.0 W/m2
23:38 58.5 °F /  14.7 °C 24.6 °F /  -4.1 °C 29.85in /  1010.7hPa ENE 0.9mph /  1.4km/h 2.0mph /  3.2km/h 27% 0.00in /  0mm 0.0 W/m2
23:43 58.3 °F /  14.6 °C 25.3 °F /  -3.7 °C 29.85in /  1010.7hPa Calm   1.0mph /  1.6km/h 28% 0.00in /  0mm 0.0 W/m2
23:48 58.1 °F /  14.5 °C 25.2 °F /  -3.8 °C 29.85in /  1010.7hPa Calm     28% 0.00in /  0mm 0.0 W/m2
23:53 57.9 °F /  14.4 °C 25.0 °F /  -3.9 °C 29.85in /  1010.7hPa Calm     28% 0.00in /  0mm 0.0 W/m2
23:58 57.6 °F /  14.2 °C 25.5 °F /  -3.6 °C 29.85in /  1010.7hPa Calm   1.0mph /  1.6km/h 29% 0.00in /  0mm 0.0 W/m2
Olympia, Windhoek, Namibia
Compliments of Weather Underground - 3.25 mb